sensor_id;sensor_type;location;lat;lon;timestamp;P1;durP1;ratioP1;P2;durP2;ratioP2
5979;SDS011;3016;50.308;8.258;2023-02-26T00:02:34;20.90;;;3.80;;
5979;SDS011;3016;50.308;8.258;2023-02-26T00:05:35;21.80;;;4.13;;
5979;SDS011;3016;50.308;8.258;2023-02-26T00:08:36;26.80;;;4.87;;
5979;SDS011;3016;50.308;8.258;2023-02-26T00:11:38;20.33;;;3.63;;
5979;SDS011;3016;50.308;8.258;2023-02-26T00:14:39;20.80;;;3.53;;
5979;SDS011;3016;50.308;8.258;2023-02-26T00:17:47;20.03;;;3.67;;
5979;SDS011;3016;50.308;8.258;2023-02-26T00:21:01;21.90;;;4.00;;
5979;SDS011;3016;50.308;8.258;2023-02-26T00:24:02;21.97;;;4.17;;
5979;SDS011;3016;50.308;8.258;2023-02-26T00:27:05;23.13;;;4.60;;
5979;SDS011;3016;50.308;8.258;2023-02-26T00:30:07;25.40;;;4.60;;
5979;SDS011;3016;50.308;8.258;2023-02-26T00:33:09;21.80;;;4.03;;
5979;SDS011;3016;50.308;8.258;2023-02-26T00:36:21;26.50;;;4.80;;
5979;SDS011;3016;50.308;8.258;2023-02-26T00:39:40;21.30;;;3.80;;
5979;SDS011;3016;50.308;8.258;2023-02-26T00:42:55;20.80;;;3.60;;
5979;SDS011;3016;50.308;8.258;2023-02-26T00:49:34;23.57;;;3.43;;
5979;SDS011;3016;50.308;8.258;2023-02-26T00:56:16;22.77;;;4.07;;
5979;SDS011;3016;50.308;8.258;2023-02-26T00:59:17;27.83;;;4.53;;
5979;SDS011;3016;50.308;8.258;2023-02-26T01:02:19;20.70;;;4.10;;
5979;SDS011;3016;50.308;8.258;2023-02-26T01:05:20;21.57;;;3.60;;
5979;SDS011;3016;50.308;8.258;2023-02-26T01:08:23;21.50;;;4.37;;
5979;SDS011;3016;50.308;8.258;2023-02-26T01:11:34;20.60;;;3.90;;
5979;SDS011;3016;50.308;8.258;2023-02-26T01:14:36;25.27;;;4.93;;
5979;SDS011;3016;50.308;8.258;2023-02-26T01:20:55;20.47;;;3.77;;
5979;SDS011;3016;50.308;8.258;2023-02-26T01:24:04;24.20;;;6.40;;
5979;SDS011;3016;50.308;8.258;2023-02-26T01:27:08;26.00;;;5.53;;
5979;SDS011;3016;50.308;8.258;2023-02-26T01:30:09;27.40;;;7.33;;
5979;SDS011;3016;50.308;8.258;2023-02-26T01:33:21;25.87;;;6.67;;
5979;SDS011;3016;50.308;8.258;2023-02-26T01:36:32;25.90;;;7.10;;
5979;SDS011;3016;50.308;8.258;2023-02-26T01:43:15;30.40;;;10.10;;
5979;SDS011;3016;50.308;8.258;2023-02-26T01:50:21;28.03;;;6.20;;
5979;SDS011;3016;50.308;8.258;2023-02-26T01:53:28;37.83;;;6.57;;
5979;SDS011;3016;50.308;8.258;2023-02-26T01:56:33;23.40;;;5.87;;
5979;SDS011;3016;50.308;8.258;2023-02-26T01:59:36;23.33;;;5.60;;
5979;SDS011;3016;50.308;8.258;2023-02-26T02:02:41;25.17;;;5.30;;
5979;SDS011;3016;50.308;8.258;2023-02-26T02:05:50;27.40;;;5.30;;
5979;SDS011;3016;50.308;8.258;2023-02-26T02:08:56;21.70;;;5.40;;
5979;SDS011;3016;50.308;8.258;2023-02-26T02:15:24;24.10;;;5.47;;
5979;SDS011;3016;50.308;8.258;2023-02-26T02:36:04;25.90;;;9.87;;
5979;SDS011;3016;50.308;8.258;2023-02-26T02:39:15;29.10;;;11.67;;
5979;SDS011;3016;50.308;8.258;2023-02-26T02:46:00;27.10;;;5.00;;
5979;SDS011;3016;50.308;8.258;2023-02-26T02:49:21;24.70;;;4.60;;
5979;SDS011;3016;50.308;8.258;2023-02-26T02:52:49;27.17;;;5.07;;
5979;SDS011;3016;50.308;8.258;2023-02-26T02:55:58;24.17;;;5.10;;
5979;SDS011;3016;50.308;8.258;2023-02-26T02:59:15;27.00;;;4.90;;
5979;SDS011;3016;50.308;8.258;2023-02-26T03:02:36;24.53;;;5.10;;
5979;SDS011;3016;50.308;8.258;2023-02-26T03:05:49;21.17;;;4.97;;
5979;SDS011;3016;50.308;8.258;2023-02-26T03:08:50;20.20;;;4.30;;
5979;SDS011;3016;50.308;8.258;2023-02-26T03:11:54;23.33;;;4.57;;
5979;SDS011;3016;50.308;8.258;2023-02-26T03:14:56;24.20;;;4.77;;
5979;SDS011;3016;50.308;8.258;2023-02-26T03:24:37;23.47;;;4.90;;
5979;SDS011;3016;50.308;8.258;2023-02-26T03:28:15;22.60;;;5.03;;
5979;SDS011;3016;50.308;8.258;2023-02-26T03:32:04;25.40;;;4.97;;
5979;SDS011;3016;50.308;8.258;2023-02-26T03:35:16;20.63;;;4.70;;
5979;SDS011;3016;50.308;8.258;2023-02-26T03:38:37;23.60;;;5.00;;
5979;SDS011;3016;50.308;8.258;2023-02-26T03:41:55;20.50;;;4.40;;
5979;SDS011;3016;50.308;8.258;2023-02-26T03:45:23;23.40;;;4.80;;
5979;SDS011;3016;50.308;8.258;2023-02-26T03:48:30;19.80;;;4.47;;
5979;SDS011;3016;50.308;8.258;2023-02-26T03:51:35;29.10;;;6.13;;
5979;SDS011;3016;50.308;8.258;2023-02-26T03:54:40;23.37;;;4.43;;
5979;SDS011;3016;50.308;8.258;2023-02-26T03:57:46;25.23;;;4.67;;
5979;SDS011;3016;50.308;8.258;2023-02-26T04:00:51;24.83;;;5.27;;
5979;SDS011;3016;50.308;8.258;2023-02-26T04:04:11;22.13;;;3.80;;
5979;SDS011;3016;50.308;8.258;2023-02-26T04:07:32;21.63;;;4.00;;
5979;SDS011;3016;50.308;8.258;2023-02-26T04:11:08;22.60;;;3.60;;
5979;SDS011;3016;50.308;8.258;2023-02-26T04:14:08;22.20;;;4.17;;
5979;SDS011;3016;50.308;8.258;2023-02-26T04:17:09;24.13;;;4.80;;
5979;SDS011;3016;50.308;8.258;2023-02-26T04:20:10;20.40;;;4.17;;
5979;SDS011;3016;50.308;8.258;2023-02-26T04:23:11;29.30;;;4.40;;
5979;SDS011;3016;50.308;8.258;2023-02-26T04:33:22;24.23;;;6.13;;
5979;SDS011;3016;50.308;8.258;2023-02-26T04:36:23;25.40;;;6.20;;
5979;SDS011;3016;50.308;8.258;2023-02-26T04:39:24;25.70;;;5.67;;
5979;SDS011;3016;50.308;8.258;2023-02-26T04:42:29;28.80;;;4.70;;
5979;SDS011;3016;50.308;8.258;2023-02-26T04:45:30;23.87;;;4.40;;
5979;SDS011;3016;50.308;8.258;2023-02-26T04:48:31;29.73;;;5.63;;
5979;SDS011;3016;50.308;8.258;2023-02-26T04:51:32;21.90;;;5.23;;
5979;SDS011;3016;50.308;8.258;2023-02-26T04:54:34;24.30;;;5.20;;
5979;SDS011;3016;50.308;8.258;2023-02-26T04:57:35;28.67;;;6.07;;
5979;SDS011;3016;50.308;8.258;2023-02-26T05:00:36;21.57;;;4.70;;
5979;SDS011;3016;50.308;8.258;2023-02-26T05:03:37;23.50;;;5.60;;
5979;SDS011;3016;50.308;8.258;2023-02-26T05:06:38;22.70;;;4.30;;
5979;SDS011;3016;50.308;8.258;2023-02-26T05:09:39;23.10;;;5.00;;
5979;SDS011;3016;50.308;8.258;2023-02-26T05:12:40;23.07;;;4.80;;
5979;SDS011;3016;50.308;8.258;2023-02-26T05:15:42;26.37;;;4.43;;
5979;SDS011;3016;50.308;8.258;2023-02-26T05:18:45;30.43;;;5.20;;
5979;SDS011;3016;50.308;8.258;2023-02-26T05:21:46;25.00;;;4.37;;
5979;SDS011;3016;50.308;8.258;2023-02-26T05:24:48;20.83;;;4.47;;
5979;SDS011;3016;50.308;8.258;2023-02-26T05:27:49;22.97;;;4.73;;
5979;SDS011;3016;50.308;8.258;2023-02-26T05:30:50;21.13;;;4.90;;
5979;SDS011;3016;50.308;8.258;2023-02-26T05:33:52;22.20;;;4.60;;
5979;SDS011;3016;50.308;8.258;2023-02-26T05:36:53;21.23;;;4.63;;
5979;SDS011;3016;50.308;8.258;2023-02-26T05:39:55;22.93;;;4.37;;
5979;SDS011;3016;50.308;8.258;2023-02-26T05:42:58;21.33;;;4.07;;
5979;SDS011;3016;50.308;8.258;2023-02-26T05:45:59;24.53;;;4.43;;
5979;SDS011;3016;50.308;8.258;2023-02-26T05:49:01;22.63;;;5.27;;
5979;SDS011;3016;50.308;8.258;2023-02-26T05:52:03;24.10;;;4.50;;
5979;SDS011;3016;50.308;8.258;2023-02-26T05:55:04;24.13;;;4.90;;
5979;SDS011;3016;50.308;8.258;2023-02-26T05:58:07;21.67;;;4.03;;
5979;SDS011;3016;50.308;8.258;2023-02-26T06:01:08;19.50;;;4.10;;
5979;SDS011;3016;50.308;8.258;2023-02-26T06:04:13;21.67;;;3.87;;
5979;SDS011;3016;50.308;8.258;2023-02-26T06:07:17;23.40;;;4.17;;
5979;SDS011;3016;50.308;8.258;2023-02-26T06:10:18;20.17;;;3.47;;
5979;SDS011;3016;50.308;8.258;2023-02-26T06:13:20;20.93;;;3.33;;
5979;SDS011;3016;50.308;8.258;2023-02-26T06:16:21;20.37;;;3.80;;
5979;SDS011;3016;50.308;8.258;2023-02-26T06:19:24;22.67;;;5.00;;
5979;SDS011;3016;50.308;8.258;2023-02-26T06:22:25;27.90;;;6.07;;
5979;SDS011;3016;50.308;8.258;2023-02-26T06:25:26;29.00;;;7.73;;
5979;SDS011;3016;50.308;8.258;2023-02-26T06:28:28;29.23;;;8.37;;
5979;SDS011;3016;50.308;8.258;2023-02-26T06:31:30;23.40;;;6.50;;
5979;SDS011;3016;50.308;8.258;2023-02-26T06:34:35;26.93;;;5.90;;
5979;SDS011;3016;50.308;8.258;2023-02-26T06:37:38;22.73;;;5.10;;
5979;SDS011;3016;50.308;8.258;2023-02-26T06:40:38;24.23;;;6.10;;
5979;SDS011;3016;50.308;8.258;2023-02-26T06:43:39;23.30;;;6.40;;
5979;SDS011;3016;50.308;8.258;2023-02-26T06:46:41;30.97;;;7.53;;
5979;SDS011;3016;50.308;8.258;2023-02-26T06:49:42;21.97;;;4.90;;
5979;SDS011;3016;50.308;8.258;2023-02-26T06:52:47;19.87;;;4.07;;
5979;SDS011;3016;50.308;8.258;2023-02-26T06:55:49;21.07;;;3.73;;
5979;SDS011;3016;50.308;8.258;2023-02-26T06:58:54;21.10;;;4.07;;
5979;SDS011;3016;50.308;8.258;2023-02-26T07:01:55;21.50;;;5.00;;
5979;SDS011;3016;50.308;8.258;2023-02-26T07:04:59;22.60;;;4.17;;
5979;SDS011;3016;50.308;8.258;2023-02-26T07:08:01;20.97;;;3.73;;
5979;SDS011;3016;50.308;8.258;2023-02-26T07:11:04;24.00;;;4.57;;
5979;SDS011;3016;50.308;8.258;2023-02-26T07:14:07;25.70;;;6.87;;
5979;SDS011;3016;50.308;8.258;2023-02-26T07:17:08;27.83;;;6.80;;
5979;SDS011;3016;50.308;8.258;2023-02-26T07:20:18;23.33;;;4.90;;
5979;SDS011;3016;50.308;8.258;2023-02-26T07:23:20;21.47;;;4.33;;
5979;SDS011;3016;50.308;8.258;2023-02-26T07:26:21;27.20;;;6.70;;
5979;SDS011;3016;50.308;8.258;2023-02-26T07:29:22;23.20;;;4.33;;
5979;SDS011;3016;50.308;8.258;2023-02-26T07:32:24;25.70;;;5.70;;
5979;SDS011;3016;50.308;8.258;2023-02-26T07:35:28;25.17;;;6.17;;
5979;SDS011;3016;50.308;8.258;2023-02-26T07:38:30;21.90;;;5.00;;
5979;SDS011;3016;50.308;8.258;2023-02-26T07:41:31;24.23;;;5.13;;
5979;SDS011;3016;50.308;8.258;2023-02-26T07:44:32;23.10;;;4.10;;
5979;SDS011;3016;50.308;8.258;2023-02-26T07:47:34;21.67;;;4.87;;
5979;SDS011;3016;50.308;8.258;2023-02-26T07:50:35;23.27;;;4.13;;
5979;SDS011;3016;50.308;8.258;2023-02-26T07:53:38;24.13;;;5.87;;
5979;SDS011;3016;50.308;8.258;2023-02-26T07:56:39;23.63;;;4.37;;
5979;SDS011;3016;50.308;8.258;2023-02-26T07:59:41;22.13;;;4.60;;
5979;SDS011;3016;50.308;8.258;2023-02-26T08:02:42;25.03;;;5.10;;
5979;SDS011;3016;50.308;8.258;2023-02-26T08:05:43;24.30;;;5.13;;
5979;SDS011;3016;50.308;8.258;2023-02-26T08:08:43;22.40;;;3.90;;
5979;SDS011;3016;50.308;8.258;2023-02-26T08:11:44;23.27;;;4.83;;
5979;SDS011;3016;50.308;8.258;2023-02-26T08:14:46;24.83;;;5.23;;
5979;SDS011;3016;50.308;8.258;2023-02-26T08:17:47;22.97;;;4.63;;
5979;SDS011;3016;50.308;8.258;2023-02-26T08:20:49;24.40;;;4.17;;
5979;SDS011;3016;50.308;8.258;2023-02-26T08:23:51;22.63;;;4.40;;
5979;SDS011;3016;50.308;8.258;2023-02-26T08:26:53;23.20;;;4.00;;
5979;SDS011;3016;50.308;8.258;2023-02-26T08:29:53;22.60;;;4.80;;
5979;SDS011;3016;50.308;8.258;2023-02-26T08:32:54;27.83;;;5.20;;
5979;SDS011;3016;50.308;8.258;2023-02-26T08:35:55;22.50;;;4.93;;
5979;SDS011;3016;50.308;8.258;2023-02-26T08:38:58;20.17;;;3.10;;
5979;SDS011;3016;50.308;8.258;2023-02-26T08:41:58;21.00;;;3.50;;
5979;SDS011;3016;50.308;8.258;2023-02-26T08:44:59;21.80;;;3.80;;
5979;SDS011;3016;50.308;8.258;2023-02-26T08:47:59;23.57;;;3.70;;
5979;SDS011;3016;50.308;8.258;2023-02-26T08:51:00;21.10;;;2.70;;
5979;SDS011;3016;50.308;8.258;2023-02-26T08:54:01;22.50;;;3.60;;
5979;SDS011;3016;50.308;8.258;2023-02-26T08:57:02;21.00;;;2.93;;
5979;SDS011;3016;50.308;8.258;2023-02-26T09:00:03;20.03;;;3.17;;
5979;SDS011;3016;50.308;8.258;2023-02-26T09:03:09;21.93;;;3.40;;
5979;SDS011;3016;50.308;8.258;2023-02-26T09:06:10;20.40;;;3.03;;
5979;SDS011;3016;50.308;8.258;2023-02-26T09:09:10;19.80;;;2.80;;
5979;SDS011;3016;50.308;8.258;2023-02-26T09:15:43;20.90;;;2.70;;
5979;SDS011;3016;50.308;8.258;2023-02-26T09:18:44;20.97;;;3.00;;
5979;SDS011;3016;50.308;8.258;2023-02-26T09:21:44;24.63;;;3.27;;
5979;SDS011;3016;50.308;8.258;2023-02-26T09:24:45;24.13;;;3.23;;
5979;SDS011;3016;50.308;8.258;2023-02-26T09:27:46;20.67;;;2.80;;
5979;SDS011;3016;50.308;8.258;2023-02-26T09:30:49;21.67;;;3.40;;
5979;SDS011;3016;50.308;8.258;2023-02-26T09:33:52;22.83;;;3.00;;
5979;SDS011;3016;50.308;8.258;2023-02-26T09:36:53;21.93;;;2.73;;
5979;SDS011;3016;50.308;8.258;2023-02-26T09:39:53;22.27;;;2.77;;
5979;SDS011;3016;50.308;8.258;2023-02-26T09:49:59;20.57;;;2.70;;
5979;SDS011;3016;50.308;8.258;2023-02-26T09:53:10;20.57;;;3.00;;
5979;SDS011;3016;50.308;8.258;2023-02-26T09:56:23;19.27;;;1.90;;
5979;SDS011;3016;50.308;8.258;2023-02-26T09:59:27;20.40;;;2.60;;
5979;SDS011;3016;50.308;8.258;2023-02-26T10:02:35;20.80;;;2.93;;
5979;SDS011;3016;50.308;8.258;2023-02-26T10:09:47;19.93;;;2.30;;
5979;SDS011;3016;50.308;8.258;2023-02-26T10:13:01;20.47;;;2.30;;
5979;SDS011;3016;50.308;8.258;2023-02-26T10:16:20;21.77;;;3.03;;
5979;SDS011;3016;50.308;8.258;2023-02-26T10:19:38;20.20;;;2.83;;
5979;SDS011;3016;50.308;8.258;2023-02-26T10:22:54;20.30;;;2.47;;
5979;SDS011;3016;50.308;8.258;2023-02-26T10:26:21;20.60;;;2.90;;
5979;SDS011;3016;50.308;8.258;2023-02-26T10:44:12;20.07;;;2.50;;
5979;SDS011;3016;50.308;8.258;2023-02-26T10:47:46;19.87;;;2.27;;
5979;SDS011;3016;50.308;8.258;2023-02-26T10:51:12;19.53;;;2.10;;
5979;SDS011;3016;50.308;8.258;2023-02-26T10:54:25;20.80;;;3.17;;
5979;SDS011;3016;50.308;8.258;2023-02-26T10:57:34;21.30;;;2.90;;
5979;SDS011;3016;50.308;8.258;2023-02-26T11:00:43;21.50;;;2.73;;
5979;SDS011;3016;50.308;8.258;2023-02-26T11:10:41;20.73;;;2.80;;
5979;SDS011;3016;50.308;8.258;2023-02-26T11:13:56;20.40;;;2.20;;
5979;SDS011;3016;50.308;8.258;2023-02-26T11:17:35;20.70;;;2.73;;
5979;SDS011;3016;50.308;8.258;2023-02-26T11:20:38;21.60;;;2.97;;
5979;SDS011;3016;50.308;8.258;2023-02-26T11:23:43;20.47;;;2.33;;
5979;SDS011;3016;50.308;8.258;2023-02-26T11:26:55;22.10;;;2.90;;
5979;SDS011;3016;50.308;8.258;2023-02-26T11:30:06;20.60;;;2.70;;
5979;SDS011;3016;50.308;8.258;2023-02-26T11:33:33;27.63;;;3.20;;
5979;SDS011;3016;50.308;8.258;2023-02-26T11:40:21;20.10;;;2.30;;
5979;SDS011;3016;50.308;8.258;2023-02-26T11:43:41;20.37;;;2.30;;
5979;SDS011;3016;50.308;8.258;2023-02-26T11:46:51;23.00;;;3.73;;
5979;SDS011;3016;50.308;8.258;2023-02-26T11:50:09;24.77;;;4.40;;
5979;SDS011;3016;50.308;8.258;2023-02-26T11:53:25;20.93;;;2.80;;
5979;SDS011;3016;50.308;8.258;2023-02-26T12:03:07;22.00;;;3.40;;
5979;SDS011;3016;50.308;8.258;2023-02-26T12:09:29;21.10;;;3.20;;
5979;SDS011;3016;50.308;8.258;2023-02-26T12:26:22;20.53;;;2.60;;
5979;SDS011;3016;50.308;8.258;2023-02-26T13:20:28;21.10;;;2.90;;
5979;SDS011;3016;50.308;8.258;2023-02-26T13:42:52;19.90;;;2.97;;
5979;SDS011;3016;50.308;8.258;2023-02-26T13:46:34;21.80;;;2.37;;
5979;SDS011;3016;50.308;8.258;2023-02-26T13:53:04;20.50;;;2.87;;
5979;SDS011;3016;50.308;8.258;2023-02-26T14:02:44;20.10;;;2.20;;
5979;SDS011;3016;50.308;8.258;2023-02-26T14:06:07;21.60;;;2.97;;
5979;SDS011;3016;50.308;8.258;2023-02-26T14:15:41;19.63;;;1.60;;
5979;SDS011;3016;50.308;8.258;2023-02-26T14:25:33;26.80;;;2.53;;
5979;SDS011;3016;50.308;8.258;2023-02-26T14:28:54;19.93;;;2.40;;
5979;SDS011;3016;50.308;8.258;2023-02-26T14:35:23;21.80;;;3.73;;
5979;SDS011;3016;50.308;8.258;2023-02-26T14:38:30;21.33;;;4.17;;
5979;SDS011;3016;50.308;8.258;2023-02-26T14:41:47;21.53;;;3.17;;
5979;SDS011;3016;50.308;8.258;2023-02-26T14:44:50;32.97;;;7.50;;
5979;SDS011;3016;50.308;8.258;2023-02-26T14:48:22;23.40;;;5.07;;
5979;SDS011;3016;50.308;8.258;2023-02-26T14:51:41;27.50;;;2.43;;
5979;SDS011;3016;50.308;8.258;2023-02-26T14:54:57;21.20;;;2.50;;
5979;SDS011;3016;50.308;8.258;2023-02-26T14:58:32;20.90;;;2.20;;
5979;SDS011;3016;50.308;8.258;2023-02-26T15:05:31;20.37;;;2.10;;
5979;SDS011;3016;50.308;8.258;2023-02-26T15:20:09;31.90;;;7.60;;
5979;SDS011;3016;50.308;8.258;2023-02-26T15:23:48;19.57;;;2.07;;
5979;SDS011;3016;50.308;8.258;2023-02-26T15:26:58;19.73;;;2.80;;
5979;SDS011;3016;50.308;8.258;2023-02-26T15:30:03;25.40;;;4.90;;
5979;SDS011;3016;50.308;8.258;2023-02-26T15:33:09;35.10;;;10.87;;
5979;SDS011;3016;50.308;8.258;2023-02-26T15:36:16;22.37;;;3.00;;
5979;SDS011;3016;50.308;8.258;2023-02-26T15:39:22;25.03;;;4.10;;
5979;SDS011;3016;50.308;8.258;2023-02-26T15:42:26;19.37;;;1.80;;
5979;SDS011;3016;50.308;8.258;2023-02-26T15:45:33;20.10;;;2.40;;
5979;SDS011;3016;50.308;8.258;2023-02-26T15:48:43;20.40;;;2.70;;
5979;SDS011;3016;50.308;8.258;2023-02-26T15:51:45;20.33;;;2.50;;
5979;SDS011;3016;50.308;8.258;2023-02-26T15:54:48;20.97;;;2.60;;
5979;SDS011;3016;50.308;8.258;2023-02-26T15:57:59;21.80;;;3.37;;
5979;SDS011;3016;50.308;8.258;2023-02-26T16:01:01;26.30;;;3.47;;
5979;SDS011;3016;50.308;8.258;2023-02-26T16:04:06;23.07;;;3.20;;
5979;SDS011;3016;50.308;8.258;2023-02-26T16:07:13;22.43;;;3.47;;
5979;SDS011;3016;50.308;8.258;2023-02-26T16:10:34;21.07;;;3.57;;
5979;SDS011;3016;50.308;8.258;2023-02-26T16:13:40;21.23;;;3.33;;
5979;SDS011;3016;50.308;8.258;2023-02-26T16:16:44;20.73;;;2.60;;
5979;SDS011;3016;50.308;8.258;2023-02-26T16:19:49;21.80;;;3.27;;
5979;SDS011;3016;50.308;8.258;2023-02-26T16:26:21;22.13;;;2.70;;
5979;SDS011;3016;50.308;8.258;2023-02-26T16:29:31;19.63;;;2.37;;
5979;SDS011;3016;50.308;8.258;2023-02-26T16:32:36;21.47;;;3.37;;
5979;SDS011;3016;50.308;8.258;2023-02-26T16:35:45;21.27;;;2.67;;
5979;SDS011;3016;50.308;8.258;2023-02-26T16:38:57;20.87;;;2.80;;
5979;SDS011;3016;50.308;8.258;2023-02-26T16:42:21;21.60;;;2.53;;
5979;SDS011;3016;50.308;8.258;2023-02-26T16:45:55;22.00;;;3.20;;
5979;SDS011;3016;50.308;8.258;2023-02-26T16:49:21;21.50;;;3.67;;
5979;SDS011;3016;50.308;8.258;2023-02-26T16:52:31;19.73;;;2.20;;
5979;SDS011;3016;50.308;8.258;2023-02-26T16:58:45;20.83;;;2.87;;
5979;SDS011;3016;50.308;8.258;2023-02-26T17:05:23;21.73;;;3.13;;
5979;SDS011;3016;50.308;8.258;2023-02-26T17:24:28;23.60;;;3.83;;
5979;SDS011;3016;50.308;8.258;2023-02-26T17:27:33;22.70;;;3.20;;
5979;SDS011;3016;50.308;8.258;2023-02-26T17:33:49;21.27;;;3.27;;
5979;SDS011;3016;50.308;8.258;2023-02-26T17:40:33;23.63;;;4.07;;
5979;SDS011;3016;50.308;8.258;2023-02-26T17:43:34;21.70;;;3.23;;
5979;SDS011;3016;50.308;8.258;2023-02-26T17:46:39;20.87;;;3.20;;
5979;SDS011;3016;50.308;8.258;2023-02-26T18:35:09;21.80;;;3.97;;
5979;SDS011;3016;50.308;8.258;2023-02-26T18:41:21;25.53;;;5.03;;
5979;SDS011;3016;50.308;8.258;2023-02-26T18:44:22;28.23;;;6.20;;
5979;SDS011;3016;50.308;8.258;2023-02-26T19:03:16;25.40;;;5.17;;
5979;SDS011;3016;50.308;8.258;2023-02-26T19:06:17;22.43;;;3.97;;
5979;SDS011;3016;50.308;8.258;2023-02-26T19:09:19;20.87;;;3.27;;
5979;SDS011;3016;50.308;8.258;2023-02-26T19:12:27;21.23;;;3.10;;
5979;SDS011;3016;50.308;8.258;2023-02-26T19:15:32;23.97;;;3.40;;
5979;SDS011;3016;50.308;8.258;2023-02-26T19:18:35;22.40;;;3.30;;
5979;SDS011;3016;50.308;8.258;2023-02-26T19:21:36;21.67;;;3.43;;
5979;SDS011;3016;50.308;8.258;2023-02-26T19:24:42;21.63;;;3.77;;
5979;SDS011;3016;50.308;8.258;2023-02-26T19:27:43;22.23;;;3.63;;
5979;SDS011;3016;50.308;8.258;2023-02-26T19:30:45;22.40;;;4.20;;
5979;SDS011;3016;50.308;8.258;2023-02-26T19:33:48;22.57;;;4.37;;
5979;SDS011;3016;50.308;8.258;2023-02-26T19:36:49;21.40;;;3.63;;
5979;SDS011;3016;50.308;8.258;2023-02-26T19:39:52;21.17;;;4.00;;
5979;SDS011;3016;50.308;8.258;2023-02-26T19:42:54;20.80;;;3.50;;
5979;SDS011;3016;50.308;8.258;2023-02-26T19:46:01;23.27;;;4.27;;
5979;SDS011;3016;50.308;8.258;2023-02-26T19:49:04;21.43;;;3.97;;
5979;SDS011;3016;50.308;8.258;2023-02-26T19:55:16;22.50;;;4.60;;
5979;SDS011;3016;50.308;8.258;2023-02-26T19:58:18;24.83;;;5.30;;
5979;SDS011;3016;50.308;8.258;2023-02-26T20:01:19;22.60;;;4.23;;
5979;SDS011;3016;50.308;8.258;2023-02-26T20:04:21;22.20;;;3.67;;
5979;SDS011;3016;50.308;8.258;2023-02-26T20:07:27;29.63;;;6.57;;
5979;SDS011;3016;50.308;8.258;2023-02-26T20:10:29;43.10;;;11.63;;
5979;SDS011;3016;50.308;8.258;2023-02-26T20:16:45;24.10;;;5.17;;
5979;SDS011;3016;50.308;8.258;2023-02-26T20:19:46;25.83;;;5.03;;
5979;SDS011;3016;50.308;8.258;2023-02-26T20:22:50;22.80;;;3.80;;
5979;SDS011;3016;50.308;8.258;2023-02-26T20:25:57;22.17;;;4.00;;
5979;SDS011;3016;50.308;8.258;2023-02-26T20:28:59;22.03;;;3.87;;
5979;SDS011;3016;50.308;8.258;2023-02-26T20:32:04;23.40;;;3.67;;
5979;SDS011;3016;50.308;8.258;2023-02-26T20:35:06;20.37;;;3.43;;
5979;SDS011;3016;50.308;8.258;2023-02-26T20:38:08;22.00;;;3.63;;
5979;SDS011;3016;50.308;8.258;2023-02-26T20:41:10;22.33;;;3.57;;
5979;SDS011;3016;50.308;8.258;2023-02-26T20:44:11;22.93;;;3.80;;
5979;SDS011;3016;50.308;8.258;2023-02-26T20:47:12;21.27;;;3.77;;
5979;SDS011;3016;50.308;8.258;2023-02-26T20:50:13;20.77;;;3.20;;
5979;SDS011;3016;50.308;8.258;2023-02-26T20:53:15;21.60;;;3.90;;
5979;SDS011;3016;50.308;8.258;2023-02-26T20:56:16;25.70;;;3.50;;
5979;SDS011;3016;50.308;8.258;2023-02-26T20:59:18;20.47;;;3.40;;
5979;SDS011;3016;50.308;8.258;2023-02-26T21:02:19;22.50;;;4.50;;
5979;SDS011;3016;50.308;8.258;2023-02-26T21:05:23;22.13;;;3.97;;
5979;SDS011;3016;50.308;8.258;2023-02-26T21:08:24;26.57;;;5.10;;
5979;SDS011;3016;50.308;8.258;2023-02-26T21:11:26;38.20;;;13.17;;
5979;SDS011;3016;50.308;8.258;2023-02-26T21:14:31;30.90;;;9.50;;
5979;SDS011;3016;50.308;8.258;2023-02-26T21:17:39;25.20;;;6.67;;
5979;SDS011;3016;50.308;8.258;2023-02-26T21:20:41;27.67;;;6.60;;
5979;SDS011;3016;50.308;8.258;2023-02-26T21:23:43;31.80;;;8.10;;
5979;SDS011;3016;50.308;8.258;2023-02-26T21:26:44;29.00;;;8.70;;
5979;SDS011;3016;50.308;8.258;2023-02-26T21:29:45;29.90;;;7.77;;
5979;SDS011;3016;50.308;8.258;2023-02-26T21:32:52;27.90;;;7.80;;
5979;SDS011;3016;50.308;8.258;2023-02-26T21:35:55;26.27;;;7.80;;
5979;SDS011;3016;50.308;8.258;2023-02-26T21:38:57;29.60;;;6.87;;
5979;SDS011;3016;50.308;8.258;2023-02-26T21:42:00;25.13;;;6.83;;
5979;SDS011;3016;50.308;8.258;2023-02-26T21:45:02;24.30;;;5.77;;
5979;SDS011;3016;50.308;8.258;2023-02-26T21:48:04;23.87;;;4.73;;
5979;SDS011;3016;50.308;8.258;2023-02-26T21:51:05;24.70;;;5.77;;
5979;SDS011;3016;50.308;8.258;2023-02-26T21:54:07;26.73;;;7.47;;
5979;SDS011;3016;50.308;8.258;2023-02-26T21:57:09;24.60;;;5.50;;
5979;SDS011;3016;50.308;8.258;2023-02-26T22:00:11;25.10;;;5.90;;
5979;SDS011;3016;50.308;8.258;2023-02-26T22:03:13;24.03;;;5.00;;
5979;SDS011;3016;50.308;8.258;2023-02-26T22:06:14;23.23;;;4.23;;
5979;SDS011;3016;50.308;8.258;2023-02-26T22:09:18;20.53;;;3.30;;
5979;SDS011;3016;50.308;8.258;2023-02-26T22:12:20;22.20;;;3.60;;
5979;SDS011;3016;50.308;8.258;2023-02-26T22:15:21;21.60;;;3.60;;
5979;SDS011;3016;50.308;8.258;2023-02-26T22:18:23;24.10;;;4.77;;
5979;SDS011;3016;50.308;8.258;2023-02-26T22:21:25;30.23;;;4.37;;
5979;SDS011;3016;50.308;8.258;2023-02-26T22:24:29;22.37;;;4.70;;
5979;SDS011;3016;50.308;8.258;2023-02-26T22:27:31;28.97;;;5.93;;
5979;SDS011;3016;50.308;8.258;2023-02-26T22:30:32;30.63;;;8.63;;
5979;SDS011;3016;50.308;8.258;2023-02-26T22:33:34;29.60;;;7.77;;
5979;SDS011;3016;50.308;8.258;2023-02-26T22:36:35;31.53;;;8.97;;
5979;SDS011;3016;50.308;8.258;2023-02-26T22:39:37;27.70;;;9.00;;
5979;SDS011;3016;50.308;8.258;2023-02-26T22:42:39;36.10;;;11.50;;
5979;SDS011;3016;50.308;8.258;2023-02-26T22:45:42;31.40;;;9.37;;
5979;SDS011;3016;50.308;8.258;2023-02-26T22:48:43;25.40;;;5.70;;
5979;SDS011;3016;50.308;8.258;2023-02-26T22:51:45;24.20;;;5.30;;
5979;SDS011;3016;50.308;8.258;2023-02-26T22:54:49;24.77;;;4.73;;
5979;SDS011;3016;50.308;8.258;2023-02-26T22:57:50;22.20;;;4.37;;
5979;SDS011;3016;50.308;8.258;2023-02-26T23:01:01;29.07;;;5.27;;
5979;SDS011;3016;50.308;8.258;2023-02-26T23:04:05;24.37;;;3.37;;
5979;SDS011;3016;50.308;8.258;2023-02-26T23:07:06;22.30;;;3.83;;
5979;SDS011;3016;50.308;8.258;2023-02-26T23:10:09;21.67;;;3.63;;
5979;SDS011;3016;50.308;8.258;2023-02-26T23:13:13;23.20;;;4.60;;
5979;SDS011;3016;50.308;8.258;2023-02-26T23:16:15;22.43;;;3.43;;
5979;SDS011;3016;50.308;8.258;2023-02-26T23:19:16;22.47;;;3.83;;
5979;SDS011;3016;50.308;8.258;2023-02-26T23:22:20;21.60;;;3.80;;
5979;SDS011;3016;50.308;8.258;2023-02-26T23:25:23;22.33;;;4.77;;
5979;SDS011;3016;50.308;8.258;2023-02-26T23:28:25;24.83;;;4.93;;
5979;SDS011;3016;50.308;8.258;2023-02-26T23:31:27;28.00;;;6.07;;
5979;SDS011;3016;50.308;8.258;2023-02-26T23:34:28;23.53;;;4.50;;
5979;SDS011;3016;50.308;8.258;2023-02-26T23:37:29;23.90;;;5.50;;
5979;SDS011;3016;50.308;8.258;2023-02-26T23:40:30;23.67;;;4.40;;
5979;SDS011;3016;50.308;8.258;2023-02-26T23:43:32;26.10;;;4.83;;
5979;SDS011;3016;50.308;8.258;2023-02-26T23:46:33;26.97;;;5.60;;
5979;SDS011;3016;50.308;8.258;2023-02-26T23:49:36;24.33;;;5.13;;
5979;SDS011;3016;50.308;8.258;2023-02-26T23:52:37;24.33;;;5.00;;
5979;SDS011;3016;50.308;8.258;2023-02-26T23:55:39;29.93;;;4.83;;
5979;SDS011;3016;50.308;8.258;2023-02-26T23:58:42;25.00;;;5.40;;
